M I D A S
Marine Information and Data Acquisition System
Tripno 1405 of the Zeeleeuw from 2007-10-19 08:22:55 to 2007-10-19 12:29:27
Back to CruiseResearch ActivitiesStationsMapUnderway DataData graphs

EquipmentUnitsComment
TimeDGPSUTC
LatitudeDGPSDM.mWGS84
LongitudeDGPSDM.mWGS84
HeadingGyrodeg 
SOGDGPSknotsSpeed over ground
COGDGPSdegCourse over ground
DepthEcho soundermeters200 kHz
Missing or incorrect values are displayed as -999
Navigation data collected by the RV Zeeleeuw from 2007-10-19 06:05:42 to 2007-10-19 12:38:35
                                                                                    Next 1000 lines
Time Latitude Longitude Heading SOG COG Depth
2007-10-19 06:05:51 51°13.597 2°56.091 110.8 0.9 294 9.6
2007-10-19 06:05:56 51°13.598 2°56.089 110.8 1.2 291 9.7
2007-10-19 06:06:01 51°13.599 2°56.085 111 1.6 293 9.8
2007-10-19 06:06:06 51°13.6 2°56.081 111.5 2 292 9.9
2007-10-19 06:06:12 51°13.602 2°56.076 112.1 2.3 295 -999
2007-10-19 06:06:17 51°13.603 2°56.07 112.9 2.6 294 -999
2007-10-19 06:06:23 51°13.605 2°56.063 113.3 3.1 295 -999
2007-10-19 06:06:29 51°13.607 2°56.055 113.6 3.3 294 -999
2007-10-19 06:06:35 51°13.61 2°56.046 113.9 3.7 295 -999
2007-10-19 06:06:40 51°13.612 2°56.038 114.1 3.9 294 -999
2007-10-19 06:06:45 51°13.615 2°56.029 114.5 4.2 296 -999
2007-10-19 06:06:50 51°13.618 2°56.02 114.8 4.4 295 -999
2007-10-19 06:06:55 51°13.62 2°56.011 114.9 4.7 295 -999
2007-10-19 06:07:00 51°13.623 2°56.001 115.1 4.8 295 -999
2007-10-19 06:07:05 51°13.626 2°55.991 115.4 5 295 -999
2007-10-19 06:07:10 51°13.629 2°55.981 115.7 5.2 296 -999
2007-10-19 06:07:15 51°13.633 2°55.971 116.3 5.3 296 -999
2007-10-19 06:07:20 51°13.636 2°55.96 117 5.4 296 -999
2007-10-19 06:07:25 51°13.64 2°55.949 117.5 5.5 297 -999
2007-10-19 06:07:30 51°13.644 2°55.938 117.7 5.6 297 -999
2007-10-19 06:07:35 51°13.647 2°55.927 118 5.7 298 -999
2007-10-19 06:07:40 51°13.651 2°55.916 118 5.7 297 -999
2007-10-19 06:07:45 51°13.655 2°55.904 118 5.8 298 -999
2007-10-19 06:07:50 51°13.659 2°55.893 117.8 5.8 297 -999
2007-10-19 06:07:55 51°13.662 2°55.882 116.9 5.6 297 -999
2007-10-19 06:08:00 51°13.664 2°55.871 115.9 5.4 296 -999
2007-10-19 06:08:05 51°13.667 2°55.861 114.7 5.2 295 -999
2007-10-19 06:08:10 51°13.67 2°55.851 113.4 5 293 -999
2007-10-19 06:08:15 51°13.672 2°55.841 111.9 4.9 293 -999
2007-10-19 06:08:20 51°13.675 2°55.832 110.2 4.6 291 -999
2007-10-19 06:08:25 51°13.677 2°55.823 108.5 4.4 290 -999
2007-10-19 06:08:30 51°13.679 2°55.814 106.7 4.2 288 -999
2007-10-19 06:08:35 51°13.68 2°55.805 104.9 4 287 -999
2007-10-19 06:08:40 51°13.682 2°55.797 102.9 3.9 285 -999
2007-10-19 06:08:44 51°13.683 2°55.791 101.7 3.8 283 11.4
2007-10-19 06:08:50 51°13.684 2°55.781 100.3 3.6 282 11.6
2007-10-19 06:08:55 51°13.684 2°55.774 98.7 3.5 281 11.9
2007-10-19 06:08:59 51°13.685 2°55.768 97.2 3.4 280 12.2
2007-10-19 06:09:04 51°13.686 2°55.761 95.8 3.3 279 12.5
2007-10-19 06:09:09 51°13.686 2°55.754 94.7 3.1 278 12.7
2007-10-19 06:09:14 51°13.687 2°55.747 92.9 3 276 13
2007-10-19 06:09:19 51°13.687 2°55.741 91.2 2.9 275 12.8
2007-10-19 06:09:24 51°13.687 2°55.735 89.5 2.7 273 13.3
2007-10-19 06:09:28 51°13.687 2°55.731 87.5 2.5 271 14.3
2007-10-19 06:09:33 51°13.687 2°55.725 85.4 2.3 269 14.6
2007-10-19 06:09:38 51°13.687 2°55.722 82.4 1.8 270 14.7
2007-10-19 06:09:43 51°13.686 2°55.72 79.4 1.1 267 14.2
2007-10-19 06:09:48 51°13.686 2°55.719 74.7 0.8 267 14.4
2007-10-19 06:09:52 51°13.686 2°55.718 69.2 0.5 275 14.1
2007-10-19 06:09:57 51°13.686 2°55.717 65.3 0.2 288 14.1
2007-10-19 06:10:02 51°13.687 2°55.717 60.2 0.4 14 14
2007-10-19 06:10:07 51°13.688 2°55.718 56 0.7 29 14
2007-10-19 06:10:12 51°13.689 2°55.719 49.7 1 30 14
2007-10-19 06:10:16 51°13.69 2°55.721 43.8 1.2 30 14
2007-10-19 06:10:22 51°13.693 2°55.722 37.7 1.6 25 14.1
2007-10-19 06:10:27 51°13.695 2°55.724 32.7 1.9 20 14.3
2007-10-19 06:10:31 51°13.698 2°55.725 24.7 2.2 13 14.8
2007-10-19 06:10:36 51°13.701 2°55.725 18.9 2.5 7 15.7
2007-10-19 06:10:41 51°13.705 2°55.725 9.9 2.8 1 14.6
2007-10-19 06:10:46 51°13.709 2°55.724 2.7 2.9 353 13.7
2007-10-19 06:10:51 51°13.714 2°55.723 357.2 3.4 349 13.3
2007-10-19 06:10:56 51°13.719 2°55.721 353.6 3.9 347 13.1
2007-10-19 06:11:01 51°13.725 2°55.718 349.1 4.6 342 12.8
2007-10-19 06:11:07 51°13.734 2°55.712 344.3 5.3 338 12.6
2007-10-19 06:11:11 51°13.74 2°55.707 341.1 5.9 335 12.4
2007-10-19 06:11:16 51°13.748 2°55.702 339.9 6.3 335 12.4
2007-10-19 06:11:20 51°13.755 2°55.697 339.2 6.8 335 12.3
2007-10-19 06:11:26 51°13.765 2°55.688 338.2 7.2 334 12.2
2007-10-19 06:11:31 51°13.775 2°55.681 337.6 7.5 334 12
2007-10-19 06:11:36 51°13.785 2°55.673 337.5 7.8 334 12
2007-10-19 06:11:40 51°13.793 2°55.667 337.9 8 335 11.9
2007-10-19 06:11:46 51°13.805 2°55.658 338.6 8.2 335 12.1
2007-10-19 06:11:51 51°13.816 2°55.651 338.7 8.4 335 12.1
2007-10-19 06:11:56 51°13.827 2°55.643 338.6 8.6 336 12.3
2007-10-19 06:12:01 51°13.838 2°55.636 339 8.7 337 12.3
2007-10-19 06:12:06 51°13.849 2°55.628 339.1 8.9 336 12
2007-10-19 06:12:11 51°13.861 2°55.62 339 8.9 337 11.8
2007-10-19 06:12:16 51°13.872 2°55.613 339.5 9 338 11.7
2007-10-19 06:12:21 51°13.884 2°55.606 340.4 9.1 338 11.7
2007-10-19 06:12:27 51°13.898 2°55.596 340.1 9.1 337 11.7
2007-10-19 06:12:31 51°13.907 2°55.59 339.6 9.2 338 12.1
2007-10-19 06:12:36 51°13.919 2°55.582 340.3 9.2 338 12.1
2007-10-19 06:12:41 51°13.931 2°55.574 340.8 9.3 338 12.2
2007-10-19 06:12:46 51°13.943 2°55.566 340.2 9.2 337 12
2007-10-19 06:12:51 51°13.954 2°55.559 340.1 9.3 337 12.1
2007-10-19 06:12:56 51°13.966 2°55.551 340.4 9.3 338 12
2007-10-19 06:13:00 51°13.976 2°55.544 340 9.3 337 12.1
2007-10-19 06:13:07 51°13.992 2°55.533 339.4 9.2 337 11.8
2007-10-19 06:13:11 51°14.002 2°55.527 339.5 9.2 337 11.9
2007-10-19 06:13:16 51°14.013 2°55.519 338.9 9.3 336 12
2007-10-19 06:13:21 51°14.025 2°55.51 338.3 9.3 335 11.8
2007-10-19 06:13:26 51°14.037 2°55.5 337.1 9.3 333 11.8
2007-10-19 06:13:32 51°14.051 2°55.49 336.5 9.3 335 -999
2007-10-19 06:13:37 51°14.062 2°55.481 337.4 9.3 334 -999
2007-10-19 06:13:43 51°14.076 2°55.471 337.7 9.3 335 11.9
2007-10-19 06:13:48 51°14.088 2°55.461 336.8 9.2 332 -999
2007-10-19 06:13:53 51°14.099 2°55.453 336.4 9.3 335 5.1
2007-10-19 06:13:59 51°14.113 2°55.441 336.7 9.3 332 -999
2007-10-19 06:14:04 51°14.124 2°55.431 335.3 9.3 330 -999
2007-10-19 06:14:10 51°14.137 2°55.419 333.8 9.3 330 -999
2007-10-19 06:14:15 51°14.148 2°55.408 333.5 9.3 330 -999
2007-10-19 06:14:20 51°14.159 2°55.398 333.4 9.2 330 -999
2007-10-19 06:14:25 51°14.17 2°55.387 332.2 9.3 328 4.7
2007-10-19 06:14:30 51°14.181 2°55.377 331 9.3 329 4.9
2007-10-19 06:14:35 51°14.192 2°55.365 330.8 9.2 327 -999
2007-10-19 06:14:40 51°14.202 2°55.353 329.6 9.3 325 4.8
2007-10-19 06:14:45 51°14.213 2°55.341 327.8 9.2 324 -999
2007-10-19 06:14:50 51°14.223 2°55.329 326.5 9.2 322 4.7
2007-10-19 06:14:55 51°14.232 2°55.315 324.4 9.2 319 -999
2007-10-19 06:15:00 51°14.241 2°55.301 321.8 9.2 316 4.6
2007-10-19 06:15:05 51°14.25 2°55.286 318.8 9.2 314 -999
2007-10-19 06:15:10 51°14.258 2°55.271 316.9 9.1 312 4.8
2007-10-19 06:15:15 51°14.266 2°55.255 314.2 9.2 308 11.9
2007-10-19 06:15:20 51°14.274 2°55.238 311.9 9.3 307 11.8
2007-10-19 06:15:24 51°14.28 2°55.225 309.9 9.4 304 12
2007-10-19 06:15:29 51°14.287 2°55.207 308.7 9.5 304 11.7
2007-10-19 06:15:34 51°14.294 2°55.189 307.6 9.6 302 12
2007-10-19 06:15:39 51°14.301 2°55.171 306.5 9.6 302 12
2007-10-19 06:15:44 51°14.308 2°55.153 305.8 9.7 301 12.1
2007-10-19 06:15:48 51°14.314 2°55.138 305.2 10 302 12.2
2007-10-19 06:15:54 51°14.323 2°55.115 304.9 10.1 302 -999
2007-10-19 06:15:59 51°14.331 2°55.098 305.7 10.2 306 4.5
2007-10-19 06:16:03 51°14.338 2°55.083 308.3 10.4 305 11.7
2007-10-19 06:16:08 51°14.346 2°55.064 309.1 10.6 305 12.2
2007-10-19 06:16:13 51°14.354 2°55.044 309.1 10.7 304 11.9
2007-10-19 06:16:18 51°14.363 2°55.024 307.8 10.6 304 11.4
2007-10-19 06:16:23 51°14.371 2°55.005 307.1 10.8 304 11.4
2007-10-19 06:16:28 51°14.379 2°54.984 307 11 304 11.3
2007-10-19 06:16:32 51°14.386 2°54.968 306.3 11.2 303 11.7
2007-10-19 06:16:37 51°14.395 2°54.947 306.2 11.3 304 11.8
2007-10-19 06:16:42 51°14.404 2°54.926 306.5 11.6 305 11.8
2007-10-19 06:16:47 51°14.414 2°54.906 306.4 11.6 305 12.3
2007-10-19 06:16:52 51°14.425 2°54.888 309.3 11.5 314 11.7
2007-10-19 06:16:56 51°14.435 2°54.874 313.9 11.6 318 11.6
2007-10-19 06:17:02 51°14.451 2°54.856 319.4 11.8 323 12.2
2007-10-19 06:17:06 51°14.461 2°54.844 322.9 12 324 12.3
2007-10-19 06:17:11 51°14.475 2°54.83 325.7 11.9 328 12.1
2007-10-19 06:17:16 51°14.49 2°54.816 328.2 11.9 329 11.9
2007-10-19 06:17:21 51°14.504 2°54.803 330 12 330 11.8
2007-10-19 06:17:27 51°14.522 2°54.787 329.8 12 329 11.5
2007-10-19 06:17:31 51°14.533 2°54.776 329.5 12.1 330 11.4
2007-10-19 06:17:36 51°14.548 2°54.762 329.1 12.1 328 11.1
2007-10-19 06:17:40 51°14.559 2°54.751 327.8 12.1 327 11.2
2007-10-19 06:17:46 51°14.576 2°54.733 327.3 12.2 327 11.3
2007-10-19 06:17:51 51°14.59 2°54.718 326.8 12.1 326 11.2
2007-10-19 06:17:56 51°14.604 2°54.703 326.2 12.1 327 11
2007-10-19 06:18:01 51°14.618 2°54.688 326 12.2 327 11.1
2007-10-19 06:18:06 51°14.633 2°54.674 326.6 12.3 327 11.3
2007-10-19 06:18:12 51°14.65 2°54.656 327.2 12.3 328 11.1
2007-10-19 06:18:16 51°14.662 2°54.645 327.7 12.4 329 11.3
2007-10-19 06:18:20 51°14.674 2°54.635 329.1 12.5 330 11.2
2007-10-19 06:18:26 51°14.692 2°54.618 330 12.3 330 11.2
2007-10-19 06:18:31 51°14.706 2°54.605 330.1 12.3 330 11.2
2007-10-19 06:18:36 51°14.721 2°54.592 330 12.4 331 11.1
2007-10-19 06:18:40 51°14.734 2°54.581 330.2 12.4 331 10.9
2007-10-19 06:18:46 51°14.751 2°54.565 330.4 12.2 331 10.9
2007-10-19 06:18:51 51°14.766 2°54.552 330.2 12.3 331 11.1
2007-10-19 06:18:56 51°14.781 2°54.539 330.6 12.2 331 11.2
2007-10-19 06:19:01 51°14.796 2°54.526 330.2 12.3 331 10.9
2007-10-19 06:19:06 51°14.811 2°54.513 330.3 12.2 333 10.8
2007-10-19 06:19:11 51°14.826 2°54.501 331.1 12.3 333 11.2
2007-10-19 06:19:16 51°14.841 2°54.488 330.8 12.4 332 11.3
2007-10-19 06:19:21 51°14.856 2°54.476 330.6 12.3 332 11.1
2007-10-19 06:19:26 51°14.871 2°54.462 330.2 12.4 331 11.1
2007-10-19 06:19:31 51°14.886 2°54.449 330.2 12.4 332 11.1
2007-10-19 06:19:36 51°14.901 2°54.437 330.1 12.4 332 10.7
2007-10-19 06:19:41 51°14.916 2°54.424 330.2 12.2 332 10.5
2007-10-19 06:19:46 51°14.931 2°54.412 330.2 12.3 333 10.4
2007-10-19 06:19:51 51°14.947 2°54.399 330.2 12.4 332 10.3
2007-10-19 06:19:56 51°14.962 2°54.385 330.3 12.5 332 10.4
2007-10-19 06:20:01 51°14.977 2°54.372 330.4 12.5 331 10
2007-10-19 06:20:07 51°14.995 2°54.356 330.1 12.3 331 9.9
2007-10-19 06:20:11 51°15.007 2°54.346 329.9 12.2 330 9.6
2007-10-19 06:20:16 51°15.021 2°54.332 329.9 12.1 330 9.8
2007-10-19 06:20:20 51°15.033 2°54.321 329.5 12.4 329 10.2
2007-10-19 06:20:27 51°15.054 2°54.301 330.1 12.5 329 10.1
2007-10-19 06:20:31 51°15.066 2°54.29 330 12.4 329 10.1
2007-10-19 06:20:36 51°15.08 2°54.277 330.1 12.4 329 10.4
2007-10-19 06:20:41 51°15.095 2°54.263 330.1 12.3 329 10.2
2007-10-19 06:20:46 51°15.109 2°54.249 329.9 12.2 329 10.3
2007-10-19 06:20:51 51°15.124 2°54.234 330.1 12.3 329 10.3
2007-10-19 06:20:56 51°15.138 2°54.221 330.2 12.2 329 10.2
2007-10-19 06:21:00 51°15.15 2°54.21 330.4 12.4 329 10.3
2007-10-19 06:21:06 51°15.168 2°54.193 330.5 12.3 329 10.5
2007-10-19 06:21:11 51°15.182 2°54.179 330.5 12.4 329 10.3
2007-10-19 06:21:16 51°15.197 2°54.164 330.5 12.4 328 10.4
2007-10-19 06:21:22 51°15.215 2°54.147 329.7 12.5 328 10.6
2007-10-19 06:21:26 51°15.227 2°54.135 329.5 12.5 328 10.6
2007-10-19 06:21:31 51°15.241 2°54.12 329.4 12.5 328 10.7
2007-10-19 06:21:36 51°15.256 2°54.105 329.1 12.5 328 10.8
2007-10-19 06:21:41 51°15.27 2°54.091 329 12.3 328 10.8
2007-10-19 06:21:46 51°15.285 2°54.076 329.8 12.5 328 10.8
2007-10-19 06:21:52 51°15.303 2°54.059 330.2 12.6 329 10.9
2007-10-19 06:21:56 51°15.315 2°54.048 330.7 12.5 330 11
2007-10-19 06:22:01 51°15.331 2°54.034 330.8 12.6 329 11
2007-10-19 06:22:06 51°15.345 2°54.02 330.4 12.3 330 10.7
2007-10-19 06:22:11 51°15.36 2°54.006 330.4 12.4 330 10.9
2007-10-19 06:22:16 51°15.375 2°53.993 330.5 12.6 329 11
2007-10-19 06:22:21 51°15.39 2°53.98 331 12.3 331 10.7
2007-10-19 06:22:26 51°15.404 2°53.967 331.9 12.3 331 11.1
2007-10-19 06:22:31 51°15.42 2°53.953 332.4 12.4 331 11.7
2007-10-19 06:22:36 51°15.435 2°53.941 332.7 12.2 332 11.3
2007-10-19 06:22:41 51°15.45 2°53.928 333 12.3 332 11.3
2007-10-19 06:22:46 51°15.465 2°53.915 333.2 12.4 332 11.7
2007-10-19 06:22:51 51°15.48 2°53.903 333.2 12.5 333 11.6
2007-10-19 06:22:56 51°15.495 2°53.89 333.2 12.6 332 11.6
2007-10-19 06:23:00 51°15.507 2°53.879 332.9 12.3 332 11.5
2007-10-19 06:23:06 51°15.525 2°53.863 332.8 12.4 332 11.6
2007-10-19 06:23:11 51°15.54 2°53.85 333 12.4 332 11.8
2007-10-19 06:23:16 51°15.556 2°53.838 333.1 12.4 332 11.7
2007-10-19 06:23:21 51°15.571 2°53.824 332.5 12.5 331 11.6
2007-10-19 06:23:26 51°15.586 2°53.811 332.9 12.4 332 11.7
2007-10-19 06:23:31 51°15.601 2°53.798 332.8 12.4 331 12
2007-10-19 06:23:36 51°15.616 2°53.785 333 12.4 332 12.2
2007-10-19 06:23:40 51°15.628 2°53.775 333.1 12.5 333 11.8
2007-10-19 06:23:46 51°15.646 2°53.759 333.3 12.5 331 12
2007-10-19 06:23:52 51°15.665 2°53.744 333.4 12.4 332 12
2007-10-19 06:23:56 51°15.677 2°53.733 333.1 12.5 331 11.9
2007-10-19 06:24:02 51°15.695 2°53.717 332.6 12.3 330 12.2
2007-10-19 06:24:06 51°15.707 2°53.707 333.1 12.4 332 12.2
2007-10-19 06:24:11 51°15.722 2°53.694 333.1 12.4 331 12.2
2007-10-19 06:24:16 51°15.737 2°53.681 333.5 12.3 332 11.9
2007-10-19 06:24:21 51°15.752 2°53.668 333.3 12.3 331 12.3
2007-10-19 06:24:26 51°15.767 2°53.655 333.1 12.4 332 12.4
2007-10-19 06:24:32 51°15.785 2°53.64 333.1 12.4 331 12.2
2007-10-19 06:24:36 51°15.797 2°53.629 332.5 12.4 331 12.3
2007-10-19 06:24:41 51°15.813 2°53.615 332.4 12.3 331 12.7
2007-10-19 06:24:46 51°15.828 2°53.602 332.8 12.3 331 12.6
2007-10-19 06:24:51 51°15.842 2°53.588 332.3 12.4 330 12.7
2007-10-19 06:24:56 51°15.858 2°53.576 332.8 12.4 332 12.7
2007-10-19 06:25:01 51°15.873 2°53.563 333.3 12.6 332 12.7
2007-10-19 06:25:06 51°15.888 2°53.551 333.4 12.3 333 12.4
2007-10-19 06:25:12 51°15.907 2°53.535 333.9 12.3 333 12.7
2007-10-19 06:25:16 51°15.919 2°53.526 334.3 12.4 334 12.8
2007-10-19 06:25:20 51°15.931 2°53.516 334.2 12.3 333 12.7
2007-10-19 06:25:26 51°15.949 2°53.502 334.1 12.3 333 12.6
2007-10-19 06:25:31 51°15.964 2°53.489 333.5 12.3 332 12.9
2007-10-19 06:25:36 51°15.979 2°53.476 333.3 12.3 332 12.8
2007-10-19 06:25:41 51°15.994 2°53.464 333.1 12.3 332 12.8
2007-10-19 06:25:46 51°16.009 2°53.451 333.7 12.3 332 13.1
2007-10-19 06:25:51 51°16.024 2°53.438 333.1 12.3 332 12.8
2007-10-19 06:25:56 51°16.04 2°53.426 333.8 12.3 334 12.8
2007-10-19 06:26:01 51°16.055 2°53.413 334.2 12.4 332 13
2007-10-19 06:26:06 51°16.07 2°53.401 333.5 12.3 332 12.7
2007-10-19 06:26:11 51°16.085 2°53.388 333.5 12.4 332 13.1
2007-10-19 06:26:16 51°16.101 2°53.375 333.4 12.4 332 12.8
2007-10-19 06:26:22 51°16.119 2°53.36 333.4 12.5 332 13
2007-10-19 06:26:27 51°16.134 2°53.347 333.3 12.4 332 12.9
2007-10-19 06:26:31 51°16.146 2°53.337 333.1 12.4 333 12.8
2007-10-19 06:26:36 51°16.161 2°53.324 333.1 12.4 332 12.8
2007-10-19 06:26:41 51°16.177 2°53.312 333.8 12.5 334 13.1
2007-10-19 06:26:47 51°16.195 2°53.297 333.8 12.5 332 13.2
2007-10-19 06:26:51 51°16.207 2°53.287 333.8 12.3 333 12.9
2007-10-19 06:26:56 51°16.222 2°53.274 334.2 12.4 333 12.9
2007-10-19 06:27:00 51°16.235 2°53.264 333.7 12.2 332 12.6
2007-10-19 06:27:06 51°16.252 2°53.249 333.6 12.2 332 12.8
2007-10-19 06:27:11 51°16.267 2°53.237 333.7 12.3 333 13.1
2007-10-19 06:27:16 51°16.283 2°53.223 333.7 12.4 332 13
2007-10-19 06:27:21 51°16.298 2°53.211 333.9 12.3 333 13.2
2007-10-19 06:27:26 51°16.313 2°53.198 333.6 12.2 332 13.2
2007-10-19 06:27:31 51°16.327 2°53.186 333.2 11.9 333 12.4
2007-10-19 06:27:36 51°16.342 2°53.174 333.3 11.8 333 12.6
2007-10-19 06:27:40 51°16.354 2°53.164 333.6 12.1 333 13.3
2007-10-19 06:27:46 51°16.372 2°53.149 333.6 12.2 332 13.1
2007-10-19 06:27:51 51°16.387 2°53.137 333.7 12 333 12.9
2007-10-19 06:27:56 51°16.401 2°53.124 333.2 12.2 332 12.7
2007-10-19 06:28:01 51°16.416 2°53.112 333.1 12.2 332 13.2
2007-10-19 06:28:06 51°16.432 2°53.099 333.1 12.3 331 13.1
2007-10-19 06:28:11 51°16.447 2°53.086 332.7 12.4 332 13.1
2007-10-19 06:28:16 51°16.462 2°53.073 332.5 12.3 332 13
2007-10-19 06:28:21 51°16.477 2°53.06 333.1 12.4 333 13.1
2007-10-19 06:28:26 51°16.492 2°53.047 333.3 12.2 332 12.8
2007-10-19 06:28:31 51°16.507 2°53.036 333.5 12.3 333 13
2007-10-19 06:28:36 51°16.522 2°53.023 333.8 12.3 332 13
2007-10-19 06:28:41 51°16.538 2°53.011 333.8 12.4 333 12.8
2007-10-19 06:28:46 51°16.553 2°52.998 333.7 12.4 332 13
2007-10-19 06:28:52 51°16.571 2°52.983 333.6 12.3 333 12.7
2007-10-19 06:28:56 51°16.583 2°52.973 333.6 12.3 333 12.9
2007-10-19 06:29:01 51°16.599 2°52.96 333.3 12.3 332 12.7
2007-10-19 06:29:06 51°16.614 2°52.947 333.3 12.4 332 12.6
2007-10-19 06:29:11 51°16.629 2°52.933 332.7 12.5 332 12.8
2007-10-19 06:29:16 51°16.645 2°52.921 333.1 12.6 332 12.7
2007-10-19 06:29:21 51°16.66 2°52.908 333 12.5 332 12.6
2007-10-19 06:29:27 51°16.678 2°52.893 333.8 12.6 333 12.5
2007-10-19 06:29:31 51°16.691 2°52.882 333.1 12.5 331 12.4
2007-10-19 06:29:36 51°16.706 2°52.87 333.3 12.6 333 12.3
2007-10-19 06:29:40 51°16.719 2°52.859 333.3 12.5 332 12.1
2007-10-19 06:29:46 51°16.737 2°52.844 333.2 12.6 333 11.7
2007-10-19 06:29:51 51°16.752 2°52.832 333.3 12.3 332 11.4
2007-10-19 06:29:56 51°16.767 2°52.819 333.6 12.3 333 11.2
2007-10-19 06:30:01 51°16.782 2°52.806 333.6 12.4 333 11.1
2007-10-19 06:30:06 51°16.798 2°52.794 333.8 12.4 333 10.9
2007-10-19 06:30:11 51°16.813 2°52.782 333.8 12.3 333 10.7
2007-10-19 06:30:16 51°16.828 2°52.77 333.8 12.2 333 11.2
2007-10-19 06:30:21 51°16.843 2°52.757 334 12.4 333 10.8
2007-10-19 06:30:26 51°16.859 2°52.745 334 12.4 334 10.9
2007-10-19 06:30:31 51°16.873 2°52.733 334 11.9 333 10.3
2007-10-19 06:30:36 51°16.888 2°52.722 334.5 12 335 10.4
2007-10-19 06:30:41 51°16.904 2°52.711 335.8 12 336 10.8
2007-10-19 06:30:46 51°16.919 2°52.7 337.3 12.3 337 10.9
2007-10-19 06:30:51 51°16.935 2°52.69 337.9 12.4 338 11
2007-10-19 06:30:56 51°16.951 2°52.679 339 12.4 338 11.2
2007-10-19 06:31:01 51°16.967 2°52.67 339.5 12.4 339 11.1
2007-10-19 06:31:06 51°16.983 2°52.659 339.6 12.5 338 11.3
2007-10-19 06:31:11 51°17 2°52.649 340.2 12.6 339 11.5
2007-10-19 06:31:16 51°17.016 2°52.64 340.5 12.6 339 11.3
2007-10-19 06:31:21 51°17.032 2°52.63 340.9 12.6 339 11.5
2007-10-19 06:31:27 51°17.052 2°52.618 341 12.6 340 11.3
2007-10-19 06:31:31 51°17.065 2°52.611 341.1 12.5 341 11.2
2007-10-19 06:31:36 51°17.082 2°52.605 343.3 12.5 344 10.8
2007-10-19 06:31:40 51°17.095 2°52.6 345.5 12.4 345 10.6
2007-10-19 06:31:47 51°17.119 2°52.592 347.5 12.3 348 10.6
2007-10-19 06:31:51 51°17.132 2°52.586 348.5 12.4 348 10.8
2007-10-19 06:31:56 51°17.149 2°52.581 349.4 12.5 349 10.9
2007-10-19 06:32:01 51°17.166 2°52.575 350.5 12.6 349 11
2007-10-19 06:32:06 51°17.184 2°52.57 351.1 12.7 350 11.1
2007-10-19 06:32:12 51°17.204 2°52.564 351.7 12.7 350 11.2
2007-10-19 06:32:16 51°17.218 2°52.56 351.6 12.7 350 11.2
2007-10-19 06:32:21 51°17.236 2°52.555 351.9 12.8 350 11.3
2007-10-19 06:32:26 51°17.253 2°52.55 352.3 12.8 351 11.4
2007-10-19 06:32:31 51°17.271 2°52.546 352.1 12.8 351 11.5
2007-10-19 06:32:36 51°17.288 2°52.542 352.4 12.7 351 11.6
2007-10-19 06:32:41 51°17.305 2°52.538 353.4 12.7 352 11.2
2007-10-19 06:32:46 51°17.323 2°52.535 354 12.7 353 11.3
2007-10-19 06:32:51 51°17.34 2°52.531 354.3 12.7 353 11.2
2007-10-19 06:32:56 51°17.357 2°52.528 354.6 12.7 353 11.3
2007-10-19 06:33:01 51°17.375 2°52.525 354.5 12.6 353 11.5
2007-10-19 06:33:06 51°17.392 2°52.521 354.5 12.7 353 11.4
2007-10-19 06:33:11 51°17.41 2°52.518 354.7 12.8 353 11.7
2007-10-19 06:33:16 51°17.427 2°52.514 354.6 12.6 353 11.9
2007-10-19 06:33:21 51°17.445 2°52.51 354.3 12.6 352 11.8
2007-10-19 06:33:26 51°17.462 2°52.507 353.7 12.7 352 11.6
2007-10-19 06:33:32 51°17.483 2°52.503 353.4 12.6 352 11.5
2007-10-19 06:33:36 51°17.497 2°52.499 353.7 12.7 352 11.4
2007-10-19 06:33:40 51°17.511 2°52.496 353.4 12.7 352 11.5
2007-10-19 06:33:46 51°17.532 2°52.491 353.4 12.8 351 11.7
2007-10-19 06:33:51 51°17.549 2°52.487 353.2 12.7 352 11.6
2007-10-19 06:33:56 51°17.567 2°52.483 353.4 12.8 353 11.5
2007-10-19 06:34:01 51°17.584 2°52.48 354.3 12.6 353 11.5
2007-10-19 06:34:06 51°17.601 2°52.476 354.4 12.6 352 11.3
2007-10-19 06:34:12 51°17.622 2°52.472 354.6 12.5 352 11.4
2007-10-19 06:34:16 51°17.636 2°52.47 354.9 12.5 354 11.6
2007-10-19 06:34:21 51°17.654 2°52.467 355.8 12.6 354 11.7
2007-10-19 06:34:26 51°17.671 2°52.465 356.3 12.5 355 11.5
2007-10-19 06:34:31 51°17.688 2°52.462 356.9 12.5 355 11.7
2007-10-19 06:34:36 51°17.705 2°52.46 356.5 12.4 354 11.3
2007-10-19 06:34:41 51°17.723 2°52.457 356.3 12.5 355 11.6
2007-10-19 06:34:46 51°17.74 2°52.455 356.8 12.6 355 11.7
2007-10-19 06:34:51 51°17.757 2°52.453 356.3 12.5 356 11.6
2007-10-19 06:34:56 51°17.775 2°52.45 356.8 12.6 355 11.7
2007-10-19 06:35:01 51°17.792 2°52.447 356.6 12.6 354 11.8
2007-10-19 06:35:06 51°17.81 2°52.445 356.1 12.7 354 11.6
2007-10-19 06:35:11 51°17.827 2°52.442 356 12.8 355 11.8
2007-10-19 06:35:16 51°17.845 2°52.44 356.1 12.7 355 11.8
2007-10-19 06:35:21 51°17.862 2°52.441 358.7 12.8 1 11.8
2007-10-19 06:35:26 51°17.88 2°52.442 1.8 12.9 1 11.9
2007-10-19 06:35:32 51°17.901 2°52.444 3.4 12.8 3 11.7
2007-10-19 06:35:36 51°17.916 2°52.446 5.1 12.9 4 11.6
2007-10-19 06:35:40 51°17.93 2°52.448 6.1 12.7 6 11.4
2007-10-19 06:35:46 51°17.951 2°52.454 9.4 12.8 11 11.4
2007-10-19 06:35:51 51°17.968 2°52.461 13.7 13 14 11.6
2007-10-19 06:35:56 51°17.985 2°52.47 17 13 16 11.7
2007-10-19 06:36:01 51°18.002 2°52.478 19 12.6 18 11.4
2007-10-19 06:36:06 51°18.018 2°52.489 21.1 12.6 22 11.8
2007-10-19 06:36:11 51°18.034 2°52.499 22.7 12.7 21 11.7
2007-10-19 06:36:16 51°18.05 2°52.512 25.6 12.7 25 11.7
2007-10-19 06:36:21 51°18.065 2°52.526 29.8 12.7 30 12.1
2007-10-19 06:36:26 51°18.081 2°52.542 32.9 12.9 32 12.1
2007-10-19 06:36:31 51°18.095 2°52.558 34.6 12.9 35 12
2007-10-19 06:36:36 51°18.11 2°52.575 37.7 12.9 37 12
2007-10-19 06:36:41 51°18.123 2°52.595 42.6 12.9 43 12
2007-10-19 06:36:46 51°18.136 2°52.614 45.3 12.9 42 11.9
2007-10-19 06:36:51 51°18.148 2°52.635 47.9 13.1 48 12
2007-10-19 06:36:56 51°18.161 2°52.656 49.3 13 47 12.2
2007-10-19 06:37:01 51°18.173 2°52.678 51 12.8 48 12.3
2007-10-19 06:37:06 51°18.184 2°52.7 52.7 12.9 51 11.9
2007-10-19 06:37:11 51°18.196 2°52.722 53.4 13 50 12.1
2007-10-19 06:37:16 51°18.206 2°52.746 55.8 13.2 55 12.1
2007-10-19 06:37:22 51°18.219 2°52.775 58.1 13.3 55 12.3
2007-10-19 06:37:26 51°18.227 2°52.794 58 13.2 55 12.1
2007-10-19 06:37:31 51°18.236 2°52.818 60.1 13 58 12.2
2007-10-19 06:37:36 51°18.246 2°52.842 60.3 13 56 12.1
2007-10-19 06:37:41 51°18.256 2°52.867 61 13.1 59 12
2007-10-19 06:37:46 51°18.266 2°52.891 61.4 13.1 55 12
2007-10-19 06:37:51 51°18.275 2°52.916 60.4 13.1 58 12.1
2007-10-19 06:37:56 51°18.286 2°52.94 60.6 13 56 12.3
2007-10-19 06:38:00 51°18.294 2°52.959 60.3 13.1 57 12.2
2007-10-19 06:38:06 51°18.306 2°52.988 59.9 13.1 54 11.9
2007-10-19 06:38:11 51°18.316 2°53.012 59.8 13 57 12.1
2007-10-19 06:38:16 51°18.327 2°53.036 59.3 13 54 12
2007-10-19 06:38:20 51°18.334 2°53.055 59.7 13 56 12.1
2007-10-19 06:38:27 51°18.349 2°53.088 59.3 13 55 12.2
2007-10-19 06:38:31 51°18.356 2°53.108 60.2 13.1 56 12
2007-10-19 06:38:36 51°18.367 2°53.131 59.7 13.2 56 12.2
2007-10-19 06:38:41 51°18.377 2°53.155 59.5 13 55 12.5
2007-10-19 06:38:46 51°18.387 2°53.178 59.2 13 54 12.5
2007-10-19 06:38:51 51°18.397 2°53.202 58.8 13.1 55 12.4
2007-10-19 06:38:56 51°18.408 2°53.226 58.9 13.2 54 12.5
2007-10-19 06:39:00 51°18.416 2°53.245 59.2 13.1 57 12.6
2007-10-19 06:39:06 51°18.429 2°53.273 58.7 13.1 55 12.4
2007-10-19 06:39:11 51°18.44 2°53.297 58.3 13.1 53 12.3
2007-10-19 06:39:16 51°18.45 2°53.32 57.8 13 56 12.6
2007-10-19 06:39:22 51°18.462 2°53.349 58.6 13 56 12.2
2007-10-19 06:39:26 51°18.471 2°53.368 59.2 13.1 55 12.5
2007-10-19 06:39:31 51°18.481 2°53.392 58.9 13 57 12.4
2007-10-19 06:39:36 51°18.491 2°53.415 59.4 12.8 55 12.1
2007-10-19 06:39:41 51°18.502 2°53.438 59.3 12.9 55 12.1
2007-10-19 06:39:46 51°18.512 2°53.462 58.7 13 54 12.2
2007-10-19 06:39:51 51°18.522 2°53.486 58.4 13 54 12.3
2007-10-19 06:39:56 51°18.533 2°53.509 58.2 13 53 12.3
2007-10-19 06:40:01 51°18.543 2°53.532 58.2 13 55 12.5
2007-10-19 06:40:06 51°18.554 2°53.556 57.9 13.1 54 12.7
2007-10-19 06:40:11 51°18.565 2°53.579 57.4 13 53 12.6
2007-10-19 06:40:16 51°18.576 2°53.602 58.2 13 55 12.4
2007-10-19 06:40:22 51°18.589 2°53.63 58 13.1 53 12.5
2007-10-19 06:40:27 51°18.599 2°53.654 58 13.2 55 12.6
2007-10-19 06:40:31 51°18.608 2°53.673 57.6 13.2 54 12.6
2007-10-19 06:40:36 51°18.618 2°53.696 57.4 13.1 55 12.6
2007-10-19 06:40:41 51°18.629 2°53.719 57.3 13 53 12.4
2007-10-19 06:40:47 51°18.642 2°53.746 58.1 13 52 12.7
2007-10-19 06:40:51 51°18.651 2°53.765 56.4 13 53 12.6
2007-10-19 06:40:56 51°18.662 2°53.788 57.1 13.1 53 12.6
2007-10-19 06:41:01 51°18.672 2°53.811 56.7 13 54 12.7
2007-10-19 06:41:06 51°18.683 2°53.835 57.2 13 53 12.6
2007-10-19 06:41:11 51°18.694 2°53.857 57.3 13.1 52 12.3
2007-10-19 06:41:16 51°18.705 2°53.881 57.5 13.2 54 12.5
2007-10-19 06:41:20 51°18.714 2°53.899 57.2 12.9 52 12.2
2007-10-19 06:41:26 51°18.727 2°53.927 57.2 12.8 53 12.4
2007-10-19 06:41:31 51°18.737 2°53.95 57.5 13 54 12.6
2007-10-19 06:41:36 51°18.749 2°53.972 56.4 13.1 52 12.5
2007-10-19 06:41:41 51°18.759 2°53.995 56.8 13.2 53 12.4
2007-10-19 06:41:46 51°18.771 2°54.018 56.7 13.1 53 12.4
2007-10-19 06:41:51 51°18.782 2°54.04 55.9 12.9 51 12.6
2007-10-19 06:41:56 51°18.793 2°54.063 56.6 12.9 53 12.4
2007-10-19 06:42:01 51°18.804 2°54.086 56.9 13.1 52 12.7
2007-10-19 06:42:06 51°18.815 2°54.11 57.1 13.1 53 12.5
2007-10-19 06:42:11 51°18.825 2°54.133 57.9 13.1 53 12.6
2007-10-19 06:42:16 51°18.837 2°54.156 56.8 13.1 52 12.5
2007-10-19 06:42:22 51°18.85 2°54.183 56.7 13 51 12.5
2007-10-19 06:42:26 51°18.858 2°54.202 56.8 13 54 12.7
2007-10-19 06:42:31 51°18.87 2°54.224 56.8 13.1 51 12.7
2007-10-19 06:42:36 51°18.88 2°54.248 57 13.1 55 12.7
2007-10-19 06:42:42 51°18.894 2°54.275 56 13.1 50 12.5
2007-10-19 06:42:46 51°18.903 2°54.294 56.6 13 54 12.5
2007-10-19 06:42:51 51°18.914 2°54.317 57.3 13.1 53 12.6
2007-10-19 06:42:56 51°18.925 2°54.339 56.8 13 53 12.5
2007-10-19 06:43:01 51°18.936 2°54.363 57.3 13.2 53 12.4
2007-10-19 06:43:07 51°18.949 2°54.39 57.2 13.2 52 12.6
2007-10-19 06:43:11 51°18.958 2°54.409 56.7 13.1 52 12.5
2007-10-19 06:43:16 51°18.969 2°54.432 56.6 13.1 52 12.6
2007-10-19 06:43:20 51°18.978 2°54.45 56 13.1 52 12.6
2007-10-19 06:43:26 51°18.991 2°54.477 55.7 13.2 53 12.8
2007-10-19 06:43:31 51°19.003 2°54.5 55.8 13.1 52 12.5
2007-10-19 06:43:36 51°19.014 2°54.523 56.4 13.1 53 12.3
2007-10-19 06:43:40 51°19.023 2°54.541 56.4 13 51 12.4
2007-10-19 06:43:46 51°19.036 2°54.569 56.6 12.9 54 12.3
2007-10-19 06:43:51 51°19.047 2°54.592 56.6 13 51 12.2
2007-10-19 06:43:56 51°19.057 2°54.615 57.1 13 54 12.3
2007-10-19 06:44:01 51°19.068 2°54.639 58 13.1 54 12.6
2007-10-19 06:44:06 51°19.079 2°54.662 57.7 13.2 53 12.6
2007-10-19 06:44:11 51°19.09 2°54.685 57.2 13 53 12.6
2007-10-19 06:44:16 51°19.101 2°54.708 58 13.1 54 12.5
2007-10-19 06:44:21 51°19.112 2°54.731 57.1 13.1 52 12.6
2007-10-19 06:44:27 51°19.125 2°54.758 56.4 13.1 54 12.8
2007-10-19 06:44:31 51°19.134 2°54.776 56.6 12.9 52 12.4
2007-10-19 06:44:36 51°19.144 2°54.799 57 13 54 12.4
2007-10-19 06:44:42 51°19.158 2°54.827 56.9 13 53 12.7
2007-10-19 06:44:46 51°19.167 2°54.845 56.6 13 53 12.6
2007-10-19 06:44:51 51°19.178 2°54.867 56.4 12.9 52 12.5
2007-10-19 06:44:56 51°19.189 2°54.89 56.6 13 52 12.6
2007-10-19 06:45:01 51°19.2 2°54.913 56.8 13.1 53 12.6
2007-10-19 06:45:06 51°19.211 2°54.935 56.1 12.9 52 12.3
2007-10-19 06:45:12 51°19.224 2°54.963 56.7 13 52 12.6
2007-10-19 06:45:16 51°19.233 2°54.982 56.9 13.1 53 12.7
2007-10-19 06:45:20 51°19.241 2°55 57.1 13 54 12.7
2007-10-19 06:45:27 51°19.256 2°55.032 57.9 13 53 12.9
2007-10-19 06:45:32 51°19.267 2°55.056 58.6 13 55 12.9
2007-10-19 06:45:36 51°19.275 2°55.074 58.4 13.1 53 12.7
2007-10-19 06:45:40 51°19.284 2°55.094 59 13 55 12.7
2007-10-19 06:45:46 51°19.296 2°55.122 60 13.1 57 12.8
2007-10-19 06:45:51 51°19.306 2°55.146 60.3 13 56 12.8
2007-10-19 06:45:56 51°19.316 2°55.17 60.4 13 55 12.6
2007-10-19 06:46:01 51°19.326 2°55.193 59.9 13 54 12.8
2007-10-19 06:46:06 51°19.336 2°55.218 60.6 13.1 56 12.8
2007-10-19 06:46:12 51°19.349 2°55.246 60.6 13 55 12.8
2007-10-19 06:46:16 51°19.357 2°55.265 59.1 13 54 12.9
2007-10-19 06:46:21 51°19.367 2°55.289 59.8 12.9 55 12.8
2007-10-19 06:46:26 51°19.378 2°55.312 59.4 12.9 55 12.8
2007-10-19 06:46:31 51°19.388 2°55.335 59.8 12.8 54 12.7
2007-10-19 06:46:36 51°19.398 2°55.358 59 12.8 54 12.9
2007-10-19 06:46:41 51°19.409 2°55.382 59.3 12.9 55 13
2007-10-19 06:46:46 51°19.419 2°55.406 59.4 13 54 12.9
2007-10-19 06:46:51 51°19.43 2°55.429 59.3 13 54 12.9
2007-10-19 06:46:56 51°19.44 2°55.453 59.7 13.1 56 12.7
2007-10-19 06:47:01 51°19.45 2°55.477 59.8 12.9 55 12.9
2007-10-19 06:47:07 51°19.462 2°55.505 59.8 12.9 56 12.9
2007-10-19 06:47:11 51°19.471 2°55.523 59.6 12.9 53 13.1
2007-10-19 06:47:16 51°19.481 2°55.547 59.6 13 57 12.9
2007-10-19 06:47:22 51°19.493 2°55.575 60.1 12.9 54 12.7
2007-10-19 06:47:27 51°19.503 2°55.599 59.7 12.9 56 12.6
2007-10-19 06:47:31 51°19.512 2°55.617 59.7 12.8 54 12.8
2007-10-19 06:47:36 51°19.521 2°55.641 60.2 12.7 56 12.8
2007-10-19 06:47:41 51°19.532 2°55.664 59.5 12.7 54 12.9
2007-10-19 06:47:46 51°19.542 2°55.688 60.1 13 55 12.8
2007-10-19 06:47:52 51°19.555 2°55.716 59.6 13.2 55 13.1
2007-10-19 06:47:56 51°19.563 2°55.735 59.6 13 56 13.1
2007-10-19 06:48:00 51°19.571 2°55.754 59.2 12.9 56 13
2007-10-19 06:48:06 51°19.583 2°55.781 59.4 12.9 55 12.5
2007-10-19 06:48:11 51°19.594 2°55.805 58.8 12.9 54 12.6
2007-10-19 06:48:16 51°19.604 2°55.829 59.4 13 55 12.8
2007-10-19 06:48:20 51°19.613 2°55.847 58.9 13 53 12.8
2007-10-19 06:48:26 51°19.625 2°55.875 58.2 12.9 54 13.1
2007-10-19 06:48:31 51°19.636 2°55.898 58.7 12.9 55 12.7
2007-10-19 06:48:36 51°19.646 2°55.922 59.5 12.9 54 12.8
2007-10-19 06:48:41 51°19.656 2°55.945 58.8 12.9 54 13.2
2007-10-19 06:48:46 51°19.666 2°55.969 58.9 12.8 57 12.8
2007-10-19 06:48:51 51°19.676 2°55.992 58.9 12.9 55 12.6
2007-10-19 06:48:56 51°19.687 2°56.015 59 12.9 55 12.5
2007-10-19 06:49:01 51°19.697 2°56.039 59.6 12.9 56 12.6
2007-10-19 06:49:06 51°19.707 2°56.061 59 12.8 54 12.6
2007-10-19 06:49:11 51°19.718 2°56.085 59.4 12.9 54 12.7
2007-10-19 06:49:16 51°19.728 2°56.108 59.5 13 55 12.8
2007-10-19 06:49:21 51°19.738 2°56.132 59.9 13 55 12.7
2007-10-19 06:49:27 51°19.751 2°56.159 59.5 13.1 52 12.9
2007-10-19 06:49:31 51°19.758 2°56.18 60 13.1 58 12.9
2007-10-19 06:49:36 51°19.77 2°56.202 60.2 13 52 13
2007-10-19 06:49:41 51°19.779 2°56.226 58.9 12.9 56 12.9
2007-10-19 06:49:47 51°19.792 2°56.254 59.8 12.9 53 12.9
2007-10-19 06:49:51 51°19.801 2°56.273 59 13.1 55 13.1
2007-10-19 06:49:56 51°19.811 2°56.296 58.9 13.1 55 13
2007-10-19 06:50:00 51°19.82 2°56.315 58.8 13 55 12.8
2007-10-19 06:50:06 51°19.832 2°56.342 58.9 12.8 53 12.7
2007-10-19 06:50:11 51°19.842 2°56.366 59.2 12.9 55 12.8
2007-10-19 06:50:16 51°19.853 2°56.388 58.6 13 54 12.6
2007-10-19 06:50:21 51°19.863 2°56.412 58.9 13 54 12.9
2007-10-19 06:50:26 51°19.874 2°56.436 59.3 13.1 55 12.9
2007-10-19 06:50:31 51°19.884 2°56.459 59 12.9 53 12.7
2007-10-19 06:50:36 51°19.895 2°56.483 59.5 13 56 12.8
2007-10-19 06:50:41 51°19.905 2°56.505 59.5 13 53 12.8
2007-10-19 06:50:46 51°19.915 2°56.529 59.4 12.9 56 12.7
2007-10-19 06:50:51 51°19.926 2°56.552 59.4 12.9 54 12.9
2007-10-19 06:50:56 51°19.936 2°56.575 58.7 12.8 56 12.8
2007-10-19 06:51:01 51°19.947 2°56.598 59.3 13 53 12.7
2007-10-19 06:51:06 51°19.958 2°56.622 59.4 12.9 53 12.8
2007-10-19 06:51:12 51°19.97 2°56.649 59.3 12.8 55 12.8
2007-10-19 06:51:16 51°19.978 2°56.668 59.7 12.8 55 12.6
2007-10-19 06:51:22 51°19.991 2°56.696 59.1 12.9 53 12.8
2007-10-19 06:51:26 51°19.998 2°56.715 59.2 13 56 12.8
2007-10-19 06:51:31 51°20.01 2°56.738 59.3 13 53 12.7
2007-10-19 06:51:36 51°20.019 2°56.761 59.3 12.9 55 12.7
2007-10-19 06:51:41 51°20.03 2°56.784 59.6 12.9 54 12.7
2007-10-19 06:51:46 51°20.041 2°56.808 59.6 13 53 13
2007-10-19 06:51:51 51°20.051 2°56.832 59.1 13.1 56 13.1
2007-10-19 06:51:56 51°20.062 2°56.855 59.5 13 54 12.8
2007-10-19 06:52:01 51°20.072 2°56.878 59 12.9 56 13
2007-10-19 06:52:06 51°20.082 2°56.901 59.4 13 55 12.7
2007-10-19 06:52:11 51°20.093 2°56.925 58.9 13 54 12.9
2007-10-19 06:52:16 51°20.103 2°56.948 58.5 12.9 54 12.8
2007-10-19 06:52:20 51°20.112 2°56.966 59 12.9 55 12.7
2007-10-19 06:52:26 51°20.124 2°56.994 59.7 12.9 54 12.6
2007-10-19 06:52:31 51°20.134 2°57.017 59.8 12.8 55 12.7
2007-10-19 06:52:36 51°20.145 2°57.041 60.2 12.9 55 12.8
2007-10-19 06:52:41 51°20.155 2°57.064 59.7 13 54 12.9
2007-10-19 06:52:46 51°20.166 2°57.087 59.5 12.9 54 13.2
2007-10-19 06:52:51 51°20.175 2°57.111 60.2 13 56 13.2
2007-10-19 06:52:56 51°20.186 2°57.135 59.9 13 55 12.8
2007-10-19 06:53:00 51°20.194 2°57.153 60.1 12.9 54 12.9
2007-10-19 06:53:06 51°20.207 2°57.181 58.8 12.8 56 12.8
2007-10-19 06:53:11 51°20.217 2°57.204 60 13 55 12.8
2007-10-19 06:53:16 51°20.227 2°57.227 59.1 12.9 53 12.7
2007-10-19 06:53:21 51°20.237 2°57.251 59.6 13 56 12.9
2007-10-19 06:53:26 51°20.248 2°57.273 59.3 12.9 53 13.2
2007-10-19 06:53:31 51°20.258 2°57.297 58.8 12.9 55 13
2007-10-19 06:53:36 51°20.269 2°57.319 58.7 12.8 53 12.6
2007-10-19 06:53:41 51°20.279 2°57.342 58.7 12.8 54 12.8
2007-10-19 06:53:46 51°20.289 2°57.366 60.1 13 55 13
2007-10-19 06:53:51 51°20.3 2°57.389 58.7 12.9 53 12.8
2007-10-19 06:53:56 51°20.31 2°57.413 59.6 12.9 57 12.9
2007-10-19 06:54:01 51°20.32 2°57.435 60.6 12.9 55 12.9
2007-10-19 06:54:07 51°20.332 2°57.464 59.5 12.7 56 12.7
2007-10-19 06:54:11 51°20.34 2°57.482 60.2 12.8 55 13
2007-10-19 06:54:16 51°20.351 2°57.505 58.9 13 54 12.9
2007-10-19 06:54:20 51°20.359 2°57.525 59.9 12.8 57 12.7
2007-10-19 06:54:27 51°20.373 2°57.557 60.6 12.7 55 12.8
2007-10-19 06:54:32 51°20.382 2°57.581 60.9 12.6 57 12.7
2007-10-19 06:54:36 51°20.39 2°57.6 62.2 12.9 57 12.9
2007-10-19 06:54:40 51°20.398 2°57.619 61 12.8 57 13
2007-10-19 06:54:46 51°20.41 2°57.648 61.2 12.9 57 12.9
2007-10-19 06:54:51 51°20.42 2°57.671 60.7 12.8 55 12.8
2007-10-19 06:54:56 51°20.429 2°57.695 61.7 12.8 58 12.7
2007-10-19 06:55:01 51°20.439 2°57.719 62.5 12.8 57 12.7
2007-10-19 06:55:06 51°20.447 2°57.745 64.1 13 61 12.8
2007-10-19 06:55:11 51°20.457 2°57.769 63.8 12.9 59 12.6
2007-10-19 06:55:16 51°20.465 2°57.794 64.8 12.9 61 13
2007-10-19 06:55:21 51°20.474 2°57.819 65.7 12.9 61 12.6
2007-10-19 06:55:26 51°20.483 2°57.843 64.9 12.9 59 12.7
2007-10-19 06:55:31 51°20.492 2°57.868 64 12.9 60 12.8
2007-10-19 06:55:36 51°20.502 2°57.892 63.7 12.9 57 12.6
2007-10-19 06:55:42 51°20.512 2°57.921 63.2 12.8 59 12.8
2007-10-19 06:55:46 51°20.52 2°57.941 62.8 12.9 58 12.8
2007-10-19 06:55:52 51°20.531 2°57.969 62.5 12.8 58 12.6
2007-10-19 06:55:56 51°20.538 2°57.989 62.5 12.8 59 12.6
2007-10-19 06:56:02 51°20.55 2°58.018 62.9 12.9 58 12.6
2007-10-19 06:56:06 51°20.558 2°58.037 61.7 12.9 57 12.6
2007-10-19 06:56:11 51°20.568 2°58.061 61.7 12.9 57 12.6
2007-10-19 06:56:16 51°20.577 2°58.086 62.2 13 57 12.5
2007-10-19 06:56:20 51°20.586 2°58.105 61.2 12.8 57 12.8
2007-10-19 06:56:27 51°20.599 2°58.138 62.3 12.8 59 12.6
2007-10-19 06:56:31 51°20.606 2°58.158 62.5 12.9 58 12.3
2007-10-19 06:56:36 51°20.616 2°58.182 62 12.9 56 12.4
2007-10-19 06:56:41 51°20.625 2°58.206 62.4 12.8 59 12.5
2007-10-19 06:56:46 51°20.635 2°58.23 62.2 12.9 58 12.6
2007-10-19 06:56:51 51°20.645 2°58.254 61.6 12.9 56 12.5
2007-10-19 06:56:56 51°20.654 2°58.278 61.9 12.9 58 12.5
2007-10-19 06:57:00 51°20.662 2°58.296 61.5 12.9 56 12.5
2007-10-19 06:57:06 51°20.673 2°58.326 61.8 12.9 59 12.6
2007-10-19 06:57:12 51°20.685 2°58.355 61.7 12.9 57 12.5
2007-10-19 06:57:16 51°20.693 2°58.374 62.1 12.9 57 12.5
2007-10-19 06:57:20 51°20.7 2°58.394 62.2 13 58 12.6
2007-10-19 06:57:26 51°20.712 2°58.423 61.6 13 58 12.5
2007-10-19 06:57:31 51°20.722 2°58.447 61.6 13 57 12.3
2007-10-19 06:57:36 51°20.731 2°58.471 62.3 12.8 59 12.5
2007-10-19 06:57:41 51°20.74 2°58.495 62.6 12.8 57 12.4
2007-10-19 06:57:46 51°20.749 2°58.52 63.1 13 57 12.5
2007-10-19 06:57:51 51°20.759 2°58.544 62.6 13 59 12.4
2007-10-19 06:57:56 51°20.769 2°58.569 63.1 13 58 12.6
2007-10-19 06:58:01 51°20.778 2°58.592 62.3 12.8 57 12.4
2007-10-19 06:58:06 51°20.787 2°58.617 63 12.7 58 12.5
2007-10-19 06:58:11 51°20.797 2°58.64 62.2 12.8 55 12.5
2007-10-19 06:58:16 51°20.806 2°58.665 62 12.9 59 12.3
2007-10-19 06:58:22 51°20.818 2°58.693 62.4 12.9 56 12.3
2007-10-19 06:58:27 51°20.827 2°58.718 62.1 12.8 59 12.3
2007-10-19 06:58:32 51°20.837 2°58.742 63.1 12.9 56 12.4
2007-10-19 06:58:36 51°20.844 2°58.761 61.8 12.9 59 12.2
2007-10-19 06:58:40 51°20.852 2°58.78 61.8 12.9 56 12.4
2007-10-19 06:58:47 51°20.866 2°58.813 61.6 12.7 57 12.3
2007-10-19 06:58:51 51°20.874 2°58.833 61.7 12.7 57 12.2
2007-10-19 06:58:56 51°20.884 2°58.857 62.5 12.9 57 12.1
2007-10-19 06:59:01 51°20.893 2°58.881 61.6 12.8 57 12.4
2007-10-19 06:59:07 51°20.904 2°58.91 61.9 12.8 58 12.6
2007-10-19 06:59:11 51°20.912 2°58.929 61.9 12.9 58 12.7
2007-10-19 06:59:16 51°20.921 2°58.953 62.4 12.8 59 12.7
2007-10-19 06:59:21 51°20.93 2°58.977 63.1 12.8 59 12.7
2007-10-19 06:59:26 51°20.939 2°59.002 63.8 12.9 58 12.7
2007-10-19 06:59:31 51°20.949 2°59.026 63 12.8 57 12.6
2007-10-19 06:59:36 51°20.958 2°59.05 62.8 12.7 57 12.6
2007-10-19 06:59:41 51°20.967 2°59.075 62.8 12.8 59 12.7
2007-10-19 06:59:47 51°20.979 2°59.104 62 12.9 59 12.5
2007-10-19 06:59:51 51°20.987 2°59.122 61.8 12.9 56 12.3
2007-10-19 06:59:56 51°20.996 2°59.147 61.6 12.8 59 12.4
2007-10-19 07:00:01 51°21.005 2°59.171 62.6 12.9 58 12.5
2007-10-19 07:00:06 51°21.015 2°59.195 62.3 12.8 58 12.6
2007-10-19 07:00:11 51°21.024 2°59.22 63.2 12.8 60 12.6
2007-10-19 07:00:16 51°21.033 2°59.244 62.9 12.9 58 12.6
2007-10-19 07:00:21 51°21.043 2°59.268 62.3 12.9 58 12.6
2007-10-19 07:00:27 51°21.054 2°59.296 61.6 12.7 57 12.6
2007-10-19 07:00:31 51°21.062 2°59.316 62 12.9 59 12.5
2007-10-19 07:00:36 51°21.072 2°59.34 62.4 12.9 57 12.7
2007-10-19 07:00:41 51°21.081 2°59.364 61.6 12.8 57 12.5
2007-10-19 07:00:47 51°21.092 2°59.392 62.4 12.7 57 12.4
2007-10-19 07:00:51 51°21.099 2°59.412 63 12.7 60 12.2
2007-10-19 07:00:56 51°21.109 2°59.436 62.6 12.8 57 12.4
2007-10-19 07:01:00 51°21.116 2°59.456 62.7 12.8 60 12.5
2007-10-19 07:01:07 51°21.13 2°59.489 62.7 12.8 56 12.3
2007-10-19 07:01:11 51°21.137 2°59.508 62.1 12.9 57 12.6
2007-10-19 07:01:16 51°21.148 2°59.53 58.7 12.8 51 12.7
2007-10-19 07:01:21 51°21.159 2°59.553 56.6 12.7 53 12.6
2007-10-19 07:01:26 51°21.171 2°59.573 54.5 12.9 47 12.5
2007-10-19 07:01:31 51°21.183 2°59.595 53.2 12.9 49 12.5
2007-10-19 07:01:36 51°21.196 2°59.614 51.8 12.7 43 12.6
2007-10-19 07:01:41 51°21.208 2°59.636 50 12.8 47 12.6
2007-10-19 07:01:46 51°21.222 2°59.652 47 12.7 36 12.5
2007-10-19 07:01:51 51°21.236 2°59.669 42.7 12.7 40 12.1
2007-10-19 07:01:56 51°21.25 2°59.684 40.6 12.5 32 12.2
2007-10-19 07:02:01 51°21.265 2°59.699 36.7 12.5 31 12.2
2007-10-19 07:02:06 51°21.281 2°59.712 34.5 12.7 28 12.4
2007-10-19 07:02:11 51°21.297 2°59.724 30.9 12.7 25 12.4
2007-10-19 07:02:16 51°21.313 2°59.736 29.5 12.7 24 12.5
2007-10-19 07:02:20 51°21.326 2°59.745 28.3 12.9 22 12.8
2007-10-19 07:02:26 51°21.345 2°59.758 26.6 12.6 23 12.4
2007-10-19 07:02:31 51°21.362 2°59.768 25.7 12.8 22 12.6
2007-10-19 07:02:36 51°21.378 2°59.779 25.7 12.8 22 12.6
2007-10-19 07:02:41 51°21.395 2°59.789 25.2 12.6 21 12.3
2007-10-19 07:02:46 51°21.411 2°59.799 25.1 12.7 23 12.2
2007-10-19 07:02:51 51°21.427 2°59.809 24.7 12.6 21 12.5
2007-10-19 07:02:56 51°21.444 2°59.82 25.3 12.6 21 12.4
2007-10-19 07:03:01 51°21.46 2°59.829 25.1 12.6 20 12.3
2007-10-19 07:03:06 51°21.477 2°59.838 24.6 12.7 19 12.5
2007-10-19 07:03:11 51°21.494 2°59.845 22.1 12.7 13 12.4
2007-10-19 07:03:16 51°21.511 2°59.851 18.3 12.7 13 12.8
2007-10-19 07:03:21 51°21.528 2°59.856 15.4 12.7 11 12.8
2007-10-19 07:03:26 51°21.546 2°59.86 13.4 12.8 9 12.7
2007-10-19 07:03:31 51°21.563 2°59.863 11.7 12.5 6 12.3
2007-10-19 07:03:36 51°21.58 2°59.865 10.6 12.4 5 12.3
2007-10-19 07:03:41 51°21.597 2°59.865 7.2 12.3 359 12.4
2007-10-19 07:03:46 51°21.615 2°59.864 2.6 12.4 358 12.8
2007-10-19 07:03:51 51°21.632 2°59.861 359.5 12.1 354 12.2
2007-10-19 07:03:56 51°21.648 2°59.858 357.8 12.1 354 12.2
2007-10-19 07:04:01 51°21.665 2°59.854 356 12.1 351 12.4
2007-10-19 07:04:06 51°21.681 2°59.849 354.2 12.2 350 12.5
2007-10-19 07:04:11 51°21.698 2°59.844 353 12.2 348 12.4
2007-10-19 07:04:16 51°21.715 2°59.838 352 12.4 348 12.7
2007-10-19 07:04:20 51°21.728 2°59.834 351.5 12.5 348 12.7
2007-10-19 07:04:26 51°21.748 2°59.827 351.2 12.5 348 12.8
2007-10-19 07:04:31 51°21.765 2°59.821 351.2 12.5 348 12.6
2007-10-19 07:04:36 51°21.782 2°59.816 351.4 12.5 348 12.7
2007-10-19 07:04:41 51°21.799 2°59.811 352.1 12.6 350 12.6
2007-10-19 07:04:46 51°21.816 2°59.806 352.5 12.6 350 12.5
2007-10-19 07:04:51 51°21.834 2°59.802 354.2 12.6 352 12.7
2007-10-19 07:04:56 51°21.851 2°59.799 355.9 12.6 353 12.9
2007-10-19 07:05:01 51°21.868 2°59.797 357 12.6 355 12.6
2007-10-19 07:05:06 51°21.886 2°59.794 357.9 12.7 356 12.8
2007-10-19 07:05:11 51°21.903 2°59.792 358.4 12.6 356 13
2007-10-19 07:05:16 51°21.921 2°59.79 358.8 12.6 356 12.8
2007-10-19 07:05:20 51°21.935 2°59.789 359.4 12.6 356 12.7
2007-10-19 07:05:26 51°21.956 2°59.787 359.4 12.6 357 12.6
2007-10-19 07:05:31 51°21.973 2°59.785 359.4 12.7 356 12.5
2007-10-19 07:05:36 51°21.991 2°59.783 359.4 12.6 356 12.8
2007-10-19 07:05:41 51°22.009 2°59.78 359.1 12.6 355 12.7
2007-10-19 07:05:46 51°22.026 2°59.777 358.7 12.5 355 12.6
2007-10-19 07:05:51 51°22.044 2°59.775 358.7 12.6 356 12.6
2007-10-19 07:05:56 51°22.061 2°59.773 358.7 12.6 356 12.8
2007-10-19 07:06:00 51°22.075 2°59.772 358.9 12.6 356 12.8
2007-10-19 07:06:06 51°22.096 2°59.77 359.3 12.6 357 12.9
2007-10-19 07:06:11 51°22.113 2°59.769 359.9 12.5 358 12.8
2007-10-19 07:06:16 51°22.131 2°59.768 0.5 12.3 358 12.5
2007-10-19 07:06:20 51°22.144 2°59.767 0.4 12.1 356 13.2
2007-10-19 07:06:26 51°22.165 2°59.765 0.1 12.4 358 13.3
2007-10-19 07:06:31 51°22.182 2°59.763 -999 12.3 356 12.8
2007-10-19 07:06:36 51°22.198 2°59.762 359.8 12.3 357 12.8
2007-10-19 07:06:41 51°22.216 2°59.76 -999 12.5 356 13.3
2007-10-19 07:06:46 51°22.233 2°59.758 359.3 12.4 356 13.3
2007-10-19 07:06:51 51°22.25 2°59.755 358.3 12.5 354 13.5
2007-10-19 07:06:56 51°22.268 2°59.752 357.7 12.6 354 13.5
2007-10-19 07:07:00 51°22.281 2°59.75 357.6 12.6 354 13.5
2007-10-19 07:07:06 51°22.302 2°59.746 357 12.6 353 13.4
2007-10-19 07:07:11 51°22.32 2°59.743 357.1 12.6 354 13.6
2007-10-19 07:07:16 51°22.337 2°59.74 357.5 12.5 354 13.5
2007-10-19 07:07:21 51°22.354 2°59.738 357.6 12.6 354 13.7
2007-10-19 07:07:26 51°22.372 2°59.735 358 12.7 354 14
2007-10-19 07:07:31 51°22.389 2°59.733 358.4 12.5 355 13.9
2007-10-19 07:07:36 51°22.406 2°59.73 358.4 12.5 355 14.2
2007-10-19 07:07:41 51°22.424 2°59.728 358.4 12.6 355 14
2007-10-19 07:07:46 51°22.441 2°59.726 358.5 12.4 356 14.1
2007-10-19 07:07:51 51°22.458 2°59.723 358.3 12.6 355 14.5
2007-10-19 07:07:56 51°22.475 2°59.721 358.6 12.5 355 14.3
2007-10-19 07:08:01 51°22.493 2°59.719 358.4 12.5 356 14.6
2007-10-19 07:08:06 51°22.51 2°59.717 358.6 12.6 356 14.7
2007-10-19 07:08:11 51°22.527 2°59.714 358.5 12.4 355 14.2
2007-10-19 07:08:16 51°22.544 2°59.712 357.9 12.4 355 14.7
2007-10-19 07:08:21 51°22.561 2°59.709 357.8 12.4 354 14.9
2007-10-19 07:08:26 51°22.579 2°59.707 357.9 12.4 356 14.9
2007-10-19 07:08:31 51°22.596 2°59.705 358.1 12.5 356 14.6
2007-10-19 07:08:36 51°22.613 2°59.703 358.5 12.4 355 14.7
2007-10-19 07:08:41 51°22.63 2°59.701 358.4 12.4 355 15.2
2007-10-19 07:08:46 51°22.648 2°59.699 358.4 12.6 356 15.1
2007-10-19 07:08:51 51°22.665 2°59.697 358.5 12.7 357 15.4
2007-10-19 07:08:56 51°22.682 2°59.695 359 12.6 356 15.5
2007-10-19 07:09:01 51°22.699 2°59.693 358.7 12.5 356 15.3
2007-10-19 07:09:06 51°22.717 2°59.691 359 12.7 356 15.5
2007-10-19 07:09:11 51°22.734 2°59.689 358.9 12.6 356 15.5
2007-10-19 07:09:16 51°22.752 2°59.687 358.6 12.5 355 15.8
2007-10-19 07:09:21 51°22.769 2°59.684 358.6 12.5 355 15.9
2007-10-19 07:09:26 51°22.786 2°59.682 358.4 12.6 355 15.9
2007-10-19 07:09:31 51°22.804 2°59.68 358.4 12.5 356 16
2007-10-19 07:09:36 51°22.821 2°59.678 358.3 12.6 355 16.2
2007-10-19 07:09:40 51°22.835 2°59.676 358.1 12.6 356 16.1
2007-10-19 07:09:46 51°22.856 2°59.674 358.1 12.5 355 16.3
2007-10-19 07:09:51 51°22.873 2°59.672 358.2 12.5 356 16.3
2007-10-19 07:09:56 51°22.89 2°59.67 358.5 12.6 356 16.5
2007-10-19 07:10:01 51°22.908 2°59.668 359 12.4 356 16.5
2007-10-19 07:10:06 51°22.925 2°59.666 358.9 12.3 357 16.2
2007-10-19 07:10:11 51°22.942 2°59.665 359 12.4 357 16.7
2007-10-19 07:10:16 51°22.959 2°59.663 359.3 12.5 357 16.8
2007-10-19 07:10:21 51°22.977 2°59.661 359.2 12.5 356 16.8
2007-10-19 07:10:26 51°22.994 2°59.66 359.5 12.7 357 17.2
2007-10-19 07:10:31 51°23.012 2°59.658 359.1 12.4 357 17.2
2007-10-19 07:10:36 51°23.029 2°59.657 359.2 12.5 357 17.3
2007-10-19 07:10:41 51°23.046 2°59.655 359 12.6 357 17.7
2007-10-19 07:10:46 51°23.063 2°59.654 359.4 12.3 357 17.3
2007-10-19 07:10:51 51°23.08 2°59.653 359.3 12.4 356 17.4
2007-10-19 07:10:56 51°23.098 2°59.651 359.1 12.5 357 17.5
2007-10-19 07:11:01 51°23.115 2°59.649 358.6 12.6 356 17.9
2007-10-19 07:11:06 51°23.133 2°59.648 358.7 12.5 357 17.9
2007-10-19 07:11:11 51°23.15 2°59.646 358.7 12.5 356 17.7
2007-10-19 07:11:16 51°23.167 2°59.645 358.6 12.5 357 18.2
2007-10-19 07:11:21 51°23.184 2°59.643 359 12.4 357 18.4
2007-10-19 07:11:26 51°23.202 2°59.642 359.3 12.5 357 18.4
2007-10-19 07:11:31 51°23.219 2°59.641 359.3 12.5 357 18.7
2007-10-19 07:11:36 51°23.236 2°59.639 359 12.6 357 18.8
2007-10-19 07:11:40 51°23.25 2°59.638 359.2 12.6 357 18.7
2007-10-19 07:11:46 51°23.271 2°59.636 359 12.7 356 18.6
2007-10-19 07:11:51 51°23.289 2°59.634 358.7 12.7 357 18.8
2007-10-19 07:11:56 51°23.306 2°59.632 358.5 12.8 355 19
2007-10-19 07:12:01 51°23.324 2°59.63 358.4 12.6 356 19.1
2007-10-19 07:12:06 51°23.341 2°59.627 357.6 12.5 354 18.9
2007-10-19 07:12:11 51°23.358 2°59.624 356.5 12.5 354 18.7
2007-10-19 07:12:16 51°23.375 2°59.621 355.7 12.4 353 19
2007-10-19 07:12:21 51°23.392 2°59.617 354.9 12.4 353 19.3
2007-10-19 07:12:26 51°23.41 2°59.614 354.7 12.5 353 19.2
2007-10-19 07:12:31 51°23.427 2°59.61 354.9 12.6 353 19.2
2007-10-19 07:12:36 51°23.444 2°59.607 355.3 12.7 353 19.4
2007-10-19 07:12:41 51°23.461 2°59.604 355.1 12.7 353 19.5
2007-10-19 07:12:46 51°23.478 2°59.6 354.3 12.4 352 18.7
2007-10-19 07:12:51 51°23.496 2°59.597 354.5 12.5 353 19.1
2007-10-19 07:12:56 51°23.513 2°59.594 355.1 12.5 353 19
2007-10-19 07:13:01 51°23.53 2°59.59 354.9 12.6 353 19.1
2007-10-19 07:13:06 51°23.548 2°59.587 354.6 12.7 353 19.4
2007-10-19 07:13:11 51°23.565 2°59.584 354.7 12.4 354 19.2
2007-10-19 07:13:16 51°23.582 2°59.581 355 12.3 353 18.8
2007-10-19 07:13:21 51°23.599 2°59.577 354.8 12.3 353 19
2007-10-19 07:13:26 51°23.616 2°59.574 354.6 12.5 353 18.9
2007-10-19 07:13:31 51°23.633 2°59.571 354.8 12.6 352 18.9
2007-10-19 07:13:36 51°23.651 2°59.568 354.8 12.7 354 18.9
2007-10-19 07:13:40 51°23.665 2°59.565 354.9 12.6 353 18.9
2007-10-19 07:13:46 51°23.686 2°59.561 354.8 12.7 353 18.6
2007-10-19 07:13:51 51°23.703 2°59.558 354.9 12.8 354 18.3
2007-10-19 07:13:56 51°23.721 2°59.554 355.1 12.8 352 18.7
2007-10-19 07:14:01 51°23.738 2°59.552 354.8 12.8 354 17.9
2007-10-19 07:14:06 51°23.755 2°59.548 355.1 12.6 354 18
2007-10-19 07:14:11 51°23.773 2°59.545 355.2 12.5 353 18.2
2007-10-19 07:14:16 51°23.79 2°59.541 354.8 12.7 353 17.8
2007-10-19 07:14:21 51°23.808 2°59.538 354.6 12.7 353 17.8
2007-10-19 07:14:26 51°23.825 2°59.534 354.8 12.7 353 17.6
2007-10-19 07:14:31 51°23.843 2°59.531 354.9 12.7 353 17.7
2007-10-19 07:14:36 51°23.86 2°59.527 354.9 12.8 353 17.7
2007-10-19 07:14:40 51°23.875 2°59.524 354.6 12.9 353 17.5
2007-10-19 07:14:46 51°23.896 2°59.52 354.3 12.8 353 17.7
2007-10-19 07:14:51 51°23.913 2°59.516 354.9 12.8 352 17.5
2007-10-19 07:14:56 51°23.931 2°59.512 354.9 12.7 353 17.7
2007-10-19 07:15:01 51°23.948 2°59.509 354.8 12.5 353 18.1
2007-10-19 07:15:06 51°23.966 2°59.505 354.6 12.7 353 17.7
2007-10-19 07:15:11 51°23.983 2°59.502 354.9 12.7 353 17.6
2007-10-19 07:15:16 51°24 2°59.499 355.7 12.8 354 17.8
2007-10-19 07:15:20 51°24.014 2°59.496 355.6 12.8 353 17.3
2007-10-19 07:15:26 51°24.035 2°59.493 355.2 12.6 354 17.4
2007-10-19 07:15:31 51°24.052 2°59.489 355.2 12.7 352 17.3
2007-10-19 07:15:36 51°24.07 2°59.486 355.1 12.7 353 16.9
2007-10-19 07:15:41 51°24.087 2°59.482 354.9 12.6 353 17.3
2007-10-19 07:15:46 51°24.105 2°59.478 354.6 12.7 353 17.3
2007-10-19 07:15:51 51°24.123 2°59.475 354.9 12.8 353 17.1
2007-10-19 07:15:56 51°24.14 2°59.471 354.9 12.8 353 17
2007-10-19 07:16:01 51°24.158 2°59.468 354.9 12.7 353 17.1
2007-10-19 07:16:06 51°24.175 2°59.465 354.8 12.8 353 17.1
2007-10-19 07:16:11 51°24.193 2°59.461 355.5 12.8 352 17.1
2007-10-19 07:16:16 51°24.21 2°59.457 355.1 12.8 352 17
2007-10-19 07:16:21 51°24.228 2°59.452 353.4 12.8 350 16.9
2007-10-19 07:16:26 51°24.245 2°59.445 351.1 12.8 347 16.9
2007-10-19 07:16:31 51°24.262 2°59.438 348.5 12.8 345 16.4
2007-10-19 07:16:36 51°24.279 2°59.43 347 12.8 344 16.3
2007-10-19 07:16:41 51°24.296 2°59.422 346.1 12.6 344 16.1
2007-10-19 07:16:46 51°24.313 2°59.413 344.7 12.7 342 16
2007-10-19 07:16:51 51°24.33 2°59.405 344.1 12.8 342 15.8
2007-10-19 07:16:56 51°24.346 2°59.396 343.7 12.7 342 15.7
2007-10-19 07:17:01 51°24.363 2°59.387 344 12.7 342 15.7
2007-10-19 07:17:06 51°24.38 2°59.379 344.4 12.8 344 15.7
2007-10-19 07:17:11 51°24.397 2°59.371 344.8 12.9 342 15.4
2007-10-19 07:17:16 51°24.414 2°59.363 345.2 12.8 344 15.7
2007-10-19 07:17:20 51°24.428 2°59.356 345.2 12.9 343 15.9
2007-10-19 07:17:26 51°24.448 2°59.347 345.1 12.8 344 15.8
2007-10-19 07:17:31 51°24.465 2°59.339 345.3 12.8 343 15.7
2007-10-19 07:17:36 51°24.482 2°59.331 345.1 12.7 343 15.7
2007-10-19 07:17:41 51°24.499 2°59.323 344.9 12.7 344 15.9
2007-10-19 07:17:46 51°24.516 2°59.315 345.2 12.6 344 15.9
2007-10-19 07:17:51 51°24.533 2°59.307 344.8 12.5 342 15.9
2007-10-19 07:17:56 51°24.55 2°59.298 344.8 12.5 343 16.5
2007-10-19 07:18:01 51°24.567 2°59.29 344.7 12.6 343 16.4
2007-10-19 07:18:06 51°24.583 2°59.282 344 12.5 343 16.8
2007-10-19 07:18:11 51°24.6 2°59.274 344.1 12.6 342 17.1
2007-10-19 07:18:16 51°24.616 2°59.266 344.4 12.6 344 17.5
2007-10-19 07:18:20 51°24.63 2°59.259 344.7 12.8 343 17.9
2007-10-19 07:18:26 51°24.651 2°59.249 344.3 12.8 343 18.4
2007-10-19 07:18:31 51°24.668 2°59.241 344.7 12.7 344 18.5
2007-10-19 07:18:36 51°24.684 2°59.233 344.2 12.5 343 19.3
2007-10-19 07:18:41 51°24.701 2°59.225 344.2 12.5 344 19.4
2007-10-19 07:18:46 51°24.718 2°59.217 344.3 12.6 343 19.2
2007-10-19 07:18:51 51°24.735 2°59.208 344.4 12.7 343 19.2
2007-10-19 07:18:56 51°24.752 2°59.2 344.3 12.7 343 19.3
2007-10-19 07:19:00 51°24.765 2°59.194 344.3 12.8 343 19.6
2007-10-19 07:19:06 51°24.786 2°59.184 344.5 12.9 343 19.7
2007-10-19 07:19:11 51°24.803 2°59.175 344.3 12.9 343 19.9
2007-10-19 07:19:16 51°24.82 2°59.167 344.3 12.9 343 19.9
2007-10-19 07:19:21 51°24.837 2°59.159 344.3 12.9 344 19.7
2007-10-19 07:19:26 51°24.854 2°59.151 344.6 12.8 343 19.4
2007-10-19 07:19:31 51°24.87 2°59.143 344.7 12.6 344 19.4
2007-10-19 07:19:36 51°24.887 2°59.135 344.7 12.6 343 19.4
2007-10-19 07:19:41 51°24.904 2°59.127 345.4 12.4 343 19.7
2007-10-19 07:19:46 51°24.92 2°59.118 344.7 12.3 341 19.2
2007-10-19 07:19:51 51°24.936 2°59.109 342.8 12.4 338 19.4
2007-10-19 07:19:56 51°24.951 2°59.097 339.1 12.4 335 19
2007-10-19 07:20:01 51°24.966 2°59.085 336.1 12.5 334 18.9
2007-10-19 07:20:06 51°24.982 2°59.071 334.1 12.4 331 18.7
2007-10-19 07:20:11 51°24.997 2°59.058 332.4 12.6 330 19
2007-10-19 07:20:16 51°25.012 2°59.043 330.7 12.5 328 19.1
2007-10-19 07:20:21 51°25.027 2°59.028 330.1 12.5 330 19.2
2007-10-19 07:20:26 51°25.041 2°59.013 329.5 12.6 327 19.3
2007-10-19 07:20:31 51°25.056 2°58.998 328.8 12.5 328 19.2
2007-10-19 07:20:36 51°25.071 2°58.983 328.5 12.7 327 19.4
2007-10-19 07:20:41 51°25.086 2°58.968 328.6 12.6 328 19.4
2007-10-19 07:20:46 51°25.1 2°58.952 328.7 12.7 327 19.6
2007-10-19 07:20:51 51°25.115 2°58.937 328.7 12.7 328 19.4
2007-10-19 07:20:56 51°25.13 2°58.922 328.9 12.6 328 19.6
2007-10-19 07:21:00 51°25.142 2°58.91 329 12.5 328 19.8
2007-10-19 07:21:06 51°25.16 2°58.893 329.1 12.5 328 19.7
2007-10-19 07:21:11 51°25.174 2°58.878 329.3 12.6 328 20.3
2007-10-19 07:21:16 51°25.189 2°58.863 329.1 12.7 327 20.7
2007-10-19 07:21:21 51°25.204 2°58.848 329.1 12.4 329 20.5
2007-10-19 07:21:26 51°25.218 2°58.834 328.7 12.3 327 20.3
2007-10-19 07:21:31 51°25.233 2°58.82 329.5 12.5 329 20.8
2007-10-19 07:21:36 51°25.248 2°58.805 329.3 12.6 328 21.1
2007-10-19 07:21:41 51°25.262 2°58.79 329.4 12.6 328 21.4
2007-10-19 07:21:46 51°25.277 2°58.776 329.4 12.5 328 21.2
2007-10-19 07:21:51 51°25.292 2°58.761 328.7 12.6 328 21.7
2007-10-19 07:21:56 51°25.307 2°58.746 329.1 12.7 329 21.8
2007-10-19 07:22:01 51°25.321 2°58.731 329.3 12.6 327 21.8
2007-10-19 07:22:06 51°25.336 2°58.717 329.4 12.6 329 22.1
2007-10-19 07:22:11 51°25.351 2°58.702 329.6 12.6 328 22.8
2007-10-19 07:22:16 51°25.366 2°58.687 329.8 12.5 328 22.7
2007-10-19 07:22:21 51°25.38 2°58.673 329.5 12.4 329 22.2
2007-10-19 07:22:26 51°25.394 2°58.659 329.9 12.1 327 22.2
2007-10-19 07:22:31 51°25.408 2°58.644 329.4 12.1 326 22.3
2007-10-19 07:22:36 51°25.422 2°58.63 329.5 11.6 326 20.7
2007-10-19 07:22:41 51°25.435 2°58.615 329 11.5 326 22.4
2007-10-19 07:22:46 51°25.45 2°58.602 329.5 11.8 328 22.9
2007-10-19 07:22:51 51°25.464 2°58.587 329.8 12 328 22.9
2007-10-19 07:22:56 51°25.478 2°58.573 329.7 12.3 328 23.5
2007-10-19 07:23:00 51°25.49 2°58.562 330.2 12.1 328 23.3
2007-10-19 07:23:06 51°25.507 2°58.545 330.2 12.1 328 23.5
2007-10-19 07:23:11 51°25.521 2°58.531 329.6 12.2 329 23.9
2007-10-19 07:23:16 51°25.536 2°58.517 330.3 12.3 330 23.9
2007-10-19 07:23:21 51°25.551 2°58.502 330.2 12.4 328 24.1
2007-10-19 07:23:26 51°25.566 2°58.488 330.2 12.5 328 24.4
2007-10-19 07:23:31 51°25.581 2°58.473 330.7 12.2 328 24.5
2007-10-19 07:23:36 51°25.595 2°58.459 329.7 12.3 328 24.2
2007-10-19 07:23:40 51°25.607 2°58.447 329.4 12.5 328 24.8
2007-10-19 07:23:46 51°25.624 2°58.429 329.4 12.4 327 25
2007-10-19 07:23:51 51°25.638 2°58.416 329.6 12.3 329 24.7
2007-10-19 07:23:56 51°25.652 2°58.402 329.8 12.2 328 24.5
2007-10-19 07:24:01 51°25.667 2°58.388 330.5 12.1 330 25
2007-10-19 07:24:06 51°25.681 2°58.374 330.2 12.3 329 24.9
2007-10-19 07:24:11 51°25.696 2°58.359 330 12.4 330 25.3
2007-10-19 07:24:16 51°25.711 2°58.345 330.4 12.6 329 25.5
2007-10-19 07:24:21 51°25.726 2°58.331 330.5 12.5 329 25.5
2007-10-19 07:24:26 51°25.74 2°58.317 329.9 12.3 330 25.4
2007-10-19 07:24:31 51°25.755 2°58.304 330.2 12.3 329 25.3
2007-10-19 07:24:36 51°25.769 2°58.29 330.5 12.2 329 25.2
2007-10-19 07:24:40 51°25.781 2°58.279 330.5 12.3 330 25.6
2007-10-19 07:24:46 51°25.799 2°58.262 330.3 12.5 329 25.7
2007-10-19 07:24:51 51°25.814 2°58.248 330.4 12.4 329 25.8
2007-10-19 07:24:56 51°25.829 2°58.234 330.4 12.4 329 25.7
2007-10-19 07:25:01 51°25.843 2°58.22 330.1 12.5 329 25.4
2007-10-19 07:25:06 51°25.858 2°58.205 329.5 12.4 329 25.5
2007-10-19 07:25:11 51°25.873 2°58.191 329.9 12.5 328 25.6
2007-10-19 07:25:16 51°25.887 2°58.177 330 12.4 329 25.4
2007-10-19 07:25:20 51°25.899 2°58.165 330 12.4 329 25.1
2007-10-19 07:25:26 51°25.917 2°58.148 330.3 12.5 329 24.8
2007-10-19 07:25:31 51°25.932 2°58.134 330.3 12.5 330 24.7
2007-10-19 07:25:36 51°25.947 2°58.12 330.6 12.6 329 24.7
2007-10-19 07:25:41 51°25.962 2°58.106 330.6 12.7 330 24.5
2007-10-19 07:25:46 51°25.978 2°58.092 330.7 12.6 329 24.5
2007-10-19 07:25:51 51°25.992 2°58.077 330.8 12.4 328 24.1
2007-10-19 07:25:56 51°26.007 2°58.063 330 12.5 328 23.1
2007-10-19 07:26:01 51°26.022 2°58.049 329.8 12.5 330 22.7
2007-10-19 07:26:06 51°26.037 2°58.034 329.5 12.6 329 22.8
2007-10-19 07:26:11 51°26.052 2°58.019 329.5 12.7 329 22.6
2007-10-19 07:26:16 51°26.067 2°58.004 330.1 12.7 329 22.7
2007-10-19 07:26:21 51°26.082 2°57.99 329.7 12.6 329 22.5
2007-10-19 07:26:26 51°26.097 2°57.975 329.9 12.8 329 22.3
2007-10-19 07:26:31 51°26.112 2°57.961 329.9 12.7 328 21.9
2007-10-19 07:26:36 51°26.127 2°57.947 330.3 12.5 330 21.2
2007-10-19 07:26:41 51°26.142 2°57.932 330.2 12.6 328 20.8
2007-10-19 07:26:46 51°26.157 2°57.918 329.7 12.6 329 20.5
2007-10-19 07:26:51 51°26.172 2°57.903 330.2 12.7 330 20.2
2007-10-19 07:26:56 51°26.188 2°57.889 330.4 12.8 330 20
2007-10-19 07:27:01 51°26.203 2°57.875 330.5 12.7 330 19.5
2007-10-19 07:27:06 51°26.218 2°57.86 330.3 12.9 329 19.4
2007-10-19 07:27:11 51°26.234 2°57.846 329.9 12.9 330 19
2007-10-19 07:27:16 51°26.249 2°57.831 330.3 12.9 329 18.9
2007-10-19 07:27:20 51°26.261 2°57.82 330.5 12.8 329 18.1
2007-10-19 07:27:26 51°26.279 2°57.802 329.9 12.8 328 17.9
2007-10-19 07:27:31 51°26.295 2°57.788 329.9 12.9 330 18
2007-10-19 07:27:36 51°26.31 2°57.773 329.9 12.8 328 17.6
2007-10-19 07:27:41 51°26.326 2°57.759 330.4 12.8 332 17.6
2007-10-19 07:27:46 51°26.341 2°57.744 329.9 12.8 329 17.5
2007-10-19 07:27:51 51°26.357 2°57.73 330.1 12.8 331 17.5
2007-10-19 07:27:56 51°26.372 2°57.716 330.4 12.8 330 17.6
2007-10-19 07:28:01 51°26.388 2°57.702 330.6 12.9 331 17.8
2007-10-19 07:28:06 51°26.403 2°57.687 330.8 13 330 17.8
2007-10-19 07:28:11 51°26.419 2°57.673 330.9 12.8 331 17.5
2007-10-19 07:28:16 51°26.434 2°57.66 330.4 12.9 330 17
2007-10-19 07:28:21 51°26.45 2°57.646 331.1 12.9 331 16.6
2007-10-19 07:28:26 51°26.466 2°57.632 330.5 12.8 330 16
2007-10-19 07:28:31 51°26.481 2°57.618 330.5 12.8 330 16.2
2007-10-19 07:28:36 51°26.496 2°57.604 330.2 12.8 329 15.8
2007-10-19 07:28:41 51°26.511 2°57.589 329.3 12.8 329 16
2007-10-19 07:28:46 51°26.526 2°57.574 329.4 12.7 329 15.9
2007-10-19 07:28:51 51°26.541 2°57.56 329.4 12.6 329 16
2007-10-19 07:28:56 51°26.556 2°57.544 329 12.6 328 16.5
2007-10-19 07:29:01 51°26.571 2°57.53 328.9 12.6 329 16.2